createdAt,value
2017-05-25T00:02:19.827Z,59.90
2017-05-25T00:04:48.176Z,59.40
2017-05-25T00:07:16.499Z,59.50
2017-05-25T00:09:44.852Z,59.40
2017-05-25T00:12:13.172Z,59.50
2017-05-25T00:14:41.512Z,59.50
2017-05-25T00:17:09.820Z,59.90
2017-05-25T00:19:38.124Z,59.60
2017-05-25T00:22:06.435Z,59.30
2017-05-25T00:24:34.739Z,59.30
2017-05-25T00:27:03.056Z,59.20
2017-05-25T00:29:31.377Z,59.20
2017-05-25T00:31:59.692Z,59.10
2017-05-25T00:34:28.007Z,58.90
2017-05-25T00:36:56.327Z,59.60
2017-05-25T00:39:24.640Z,59.60
2017-05-25T00:41:52.961Z,59.80
2017-05-25T00:44:21.289Z,60.70
2017-05-25T00:46:49.603Z,60.70
2017-05-25T00:49:17.963Z,60.80
2017-05-25T00:51:46.485Z,60.40
2017-05-25T00:54:14.792Z,60.30
2017-05-25T00:56:43.119Z,60.00
2017-05-25T00:59:11.441Z,61.10
2017-05-25T01:01:39.747Z,61.30
2017-05-25T01:04:08.063Z,61.50
2017-05-25T01:06:36.392Z,61.30
2017-05-25T01:09:04.695Z,60.80
2017-05-25T01:11:33.008Z,61.90
2017-05-25T01:14:01.332Z,60.60
2017-05-25T01:16:29.669Z,60.60
2017-05-25T01:18:58.060Z,60.40
2017-05-25T01:21:26.375Z,60.90
2017-05-25T01:23:54.714Z,61.60
2017-05-25T01:26:23.027Z,61.50
2017-05-25T01:28:51.557Z,61.90
2017-05-25T01:31:19.889Z,62.10
2017-05-25T01:33:48.195Z,61.80
2017-05-25T01:36:16.516Z,61.10
2017-05-25T01:38:44.823Z,61.30
2017-05-25T01:41:13.135Z,61.00
2017-05-25T01:43:42.018Z,60.00
2017-05-25T01:46:10.332Z,60.40
2017-05-25T01:48:38.645Z,60.90
2017-05-25T01:51:06.964Z,61.40
2017-05-25T01:53:35.277Z,60.90
2017-05-25T01:56:03.584Z,61.20
2017-05-25T01:58:31.907Z,61.50
2017-05-25T02:01:00.211Z,61.00
2017-05-25T02:03:28.532Z,60.40
2017-05-25T02:05:56.856Z,60.00
2017-05-25T02:08:25.164Z,60.20
2017-05-25T02:10:53.480Z,60.00
2017-05-25T02:13:21.808Z,60.50
2017-05-25T02:15:50.123Z,61.00
2017-05-25T02:18:18.439Z,60.70
2017-05-25T02:20:46.759Z,60.10
2017-05-25T02:23:15.071Z,59.80
2017-05-25T02:25:43.393Z,59.20
2017-05-25T02:28:11.708Z,59.10
2017-05-25T02:30:40.017Z,59.40
2017-05-25T02:33:08.365Z,59.60
2017-05-25T02:35:36.688Z,59.90
2017-05-25T02:38:05.020Z,60.50
2017-05-25T02:40:33.331Z,60.00
2017-05-25T02:43:01.648Z,59.80
2017-05-25T02:45:29.956Z,59.80
2017-05-25T02:47:58.267Z,59.40
2017-05-25T02:50:26.584Z,59.20
2017-05-25T02:52:54.888Z,59.30
2017-05-25T02:55:23.197Z,59.20
2017-05-25T02:57:51.520Z,59.50
2017-05-25T03:00:19.908Z,59.30
2017-05-25T03:02:48.232Z,59.30
2017-05-25T03:05:16.875Z,59.50
2017-05-25T03:07:45.187Z,59.20
2017-05-25T03:10:13.491Z,59.20
2017-05-25T03:12:41.804Z,59.00
2017-05-25T03:15:10.122Z,59.20
2017-05-25T03:17:38.428Z,59.40
2017-05-25T03:20:06.747Z,59.30
2017-05-25T03:22:35.056Z,59.50
2017-05-25T03:25:03.364Z,59.50
2017-05-25T03:27:31.690Z,59.40
2017-05-25T03:30:00.003Z,59.70
2017-05-25T03:32:28.326Z,60.30
2017-05-25T03:34:56.645Z,60.00
2017-05-25T03:37:24.953Z,60.10
2017-05-25T03:39:53.269Z,60.60
2017-05-25T03:42:21.593Z,60.40
2017-05-25T03:44:50.124Z,60.50
2017-05-25T03:47:18.423Z,60.50
2017-05-25T03:49:46.763Z,60.70
2017-05-25T03:52:15.080Z,60.90
2017-05-25T03:54:43.388Z,60.70
2017-05-25T03:57:11.714Z,60.30
2017-05-25T03:59:40.030Z,59.70
2017-05-25T04:02:08.379Z,59.60
2017-05-25T04:04:36.705Z,59.40
2017-05-25T04:07:05.016Z,59.30
2017-05-25T04:09:33.351Z,59.00
2017-05-25T04:12:01.672Z,59.30
2017-05-25T04:14:29.989Z,59.20
2017-05-25T04:16:58.300Z,59.00
2017-05-25T04:19:26.872Z,58.60
2017-05-25T04:21:55.180Z,58.70
2017-05-25T04:24:23.508Z,58.40
2017-05-25T04:26:51.992Z,58.10
2017-05-25T04:29:20.304Z,57.90
2017-05-25T04:31:48.613Z,57.50
2017-05-25T04:34:16.941Z,57.30
2017-05-25T04:36:45.260Z,57.60
2017-05-25T04:39:14.209Z,57.00
2017-05-25T04:41:42.545Z,57.00
2017-05-25T04:44:15.755Z,57.40
2017-05-25T04:46:45.449Z,57.20
2017-05-25T04:49:14.680Z,56.80
2017-05-25T04:51:43.010Z,57.00
2017-05-25T04:54:11.440Z,56.80
2017-05-25T04:56:39.750Z,56.20
2017-05-25T04:59:08.056Z,55.90
2017-05-25T05:01:36.373Z,56.60
2017-05-25T05:04:04.707Z,57.00
2017-05-25T05:06:33.015Z,57.70
2017-05-25T05:09:01.332Z,57.70
2017-05-25T05:11:29.757Z,57.50
2017-05-25T05:13:58.095Z,57.60
2017-05-25T05:16:26.424Z,57.80
2017-05-25T05:18:54.894Z,57.50
2017-05-25T05:21:23.332Z,57.80
2017-05-25T05:23:51.663Z,57.20
2017-05-25T05:26:19.971Z,56.60
2017-05-25T05:28:48.284Z,56.20
2017-05-25T05:31:16.597Z,55.60
2017-05-25T05:33:44.931Z,55.90
2017-05-25T05:36:13.236Z,55.40
2017-05-25T05:38:41.559Z,55.20
2017-05-25T05:41:09.871Z,55.90
2017-05-25T05:43:38.180Z,55.20
2017-05-25T05:46:06.491Z,55.00
2017-05-25T05:48:34.814Z,54.80
2017-05-25T05:51:03.120Z,55.40
2017-05-25T05:53:31.455Z,55.70
2017-05-25T05:55:59.763Z,56.10
2017-05-25T05:58:28.083Z,55.90
2017-05-25T06:00:56.395Z,55.70
2017-05-25T06:03:24.703Z,55.80
2017-05-25T06:05:53.015Z,55.60
2017-05-25T06:08:21.345Z,55.80
2017-05-25T06:10:49.659Z,56.60
2017-05-25T06:13:17.972Z,56.80
2017-05-25T06:15:46.290Z,57.40
2017-05-25T06:18:14.599Z,56.90
2017-05-25T06:20:42.910Z,57.00
2017-05-25T06:23:11.231Z,56.20
2017-05-25T06:25:39.544Z,55.60
2017-05-25T06:28:07.852Z,55.90
2017-05-25T06:30:36.171Z,55.40
2017-05-25T06:33:04.479Z,55.50
2017-05-25T06:35:32.817Z,55.00
2017-05-25T06:38:01.144Z,55.40
2017-05-25T06:40:29.476Z,54.90
2017-05-25T06:42:57.798Z,54.90
2017-05-25T06:45:26.127Z,54.70
2017-05-25T06:47:54.436Z,55.50
2017-05-25T06:50:22.755Z,55.30
2017-05-25T06:52:51.068Z,55.80
2017-05-25T06:55:19.405Z,54.80
2017-05-25T06:57:47.725Z,54.50
2017-05-25T07:00:16.043Z,53.90
2017-05-25T07:02:44.347Z,53.60
2017-05-25T07:05:12.667Z,54.80
2017-05-25T07:07:40.988Z,54.10
2017-05-25T07:10:09.305Z,53.30
2017-05-25T07:12:37.617Z,53.40
2017-05-25T07:15:05.932Z,53.50
2017-05-25T07:17:34.243Z,52.60
2017-05-25T07:20:02.552Z,52.30
2017-05-25T07:22:30.883Z,52.20
2017-05-25T07:24:59.193Z,52.40
2017-05-25T07:27:27.500Z,52.20
2017-05-25T07:29:55.827Z,51.30
2017-05-25T07:32:24.136Z,52.00
2017-05-25T07:34:52.439Z,51.30
2017-05-25T07:37:20.775Z,51.20
2017-05-25T07:39:49.080Z,51.60
2017-05-25T07:42:17.391Z,51.10
2017-05-25T07:44:45.716Z,51.90
2017-05-25T07:47:14.020Z,50.10
2017-05-25T07:49:42.337Z,49.70
2017-05-25T07:52:10.660Z,50.40
2017-05-25T07:54:38.980Z,49.50
2017-05-25T07:57:08.064Z,50.00
2017-05-25T07:59:36.485Z,50.00
2017-05-25T08:02:05.068Z,49.50
2017-05-25T08:04:33.530Z,49.30
2017-05-25T08:07:01.896Z,48.80
2017-05-25T08:09:30.209Z,48.30
2017-05-25T08:11:58.567Z,47.80
2017-05-25T08:14:26.879Z,45.70
2017-05-25T08:16:55.196Z,46.40
2017-05-25T08:19:23.506Z,46.70
2017-05-25T08:21:51.823Z,46.40
2017-05-25T08:24:20.143Z,46.40
2017-05-25T08:26:48.452Z,46.20
2017-05-25T08:29:16.767Z,46.60
2017-05-25T08:31:45.072Z,47.90
2017-05-25T08:34:13.384Z,47.50
2017-05-25T08:36:41.716Z,45.80
2017-05-25T08:39:10.025Z,44.90
2017-05-25T08:41:38.331Z,44.60
2017-05-25T08:44:06.651Z,44.30
2017-05-25T08:46:34.981Z,45.40
2017-05-25T08:49:03.293Z,44.70
2017-05-25T08:51:31.613Z,45.30
2017-05-25T08:53:59.944Z,44.30
2017-05-25T08:56:28.262Z,43.90
2017-05-25T08:58:56.575Z,43.60
2017-05-25T09:01:24.883Z,44.00
2017-05-25T09:03:53.198Z,44.60
2017-05-25T09:06:21.519Z,41.60
2017-05-25T09:08:49.055Z,41.60
2017-05-25T09:11:17.360Z,41.20
2017-05-25T09:13:45.684Z,41.90
2017-05-25T09:16:13.996Z,42.00
2017-05-25T09:18:42.306Z,42.50
2017-05-25T09:21:10.627Z,42.70
2017-05-25T09:23:38.940Z,42.00
2017-05-25T09:26:07.271Z,43.60
2017-05-25T09:28:35.601Z,41.50
2017-05-25T09:31:03.939Z,41.40
2017-05-25T09:33:32.251Z,41.10
2017-05-25T09:36:00.578Z,40.80
2017-05-25T09:38:28.885Z,39.30
2017-05-25T09:40:57.192Z,39.80
2017-05-25T09:43:25.514Z,40.30
2017-05-25T09:45:53.833Z,40.90
2017-05-25T09:48:22.154Z,41.20
2017-05-25T09:50:51.041Z,41.90
2017-05-25T09:53:19.369Z,41.80
2017-05-25T09:55:46.914Z,41.80
2017-05-25T09:58:15.279Z,40.00
2017-05-25T10:00:43.598Z,39.90
2017-05-25T10:03:11.911Z,40.50
2017-05-25T10:05:40.227Z,40.10
2017-05-25T10:08:08.536Z,39.90
2017-05-25T10:10:36.848Z,39.30
2017-05-25T10:13:05.168Z,39.60
2017-05-25T10:15:33.482Z,39.50
2017-05-25T10:18:01.794Z,39.10
2017-05-25T10:20:30.111Z,39.00
2017-05-25T10:22:58.423Z,39.50
2017-05-25T10:25:26.737Z,39.30
2017-05-25T10:27:55.052Z,38.90
2017-05-25T10:30:23.360Z,38.60
2017-05-25T10:32:51.668Z,38.20
2017-05-25T10:35:19.991Z,38.20
2017-05-25T10:37:48.291Z,38.90
2017-05-25T10:40:16.600Z,40.20
2017-05-25T10:42:44.933Z,40.10
2017-05-25T10:45:13.248Z,40.30
2017-05-25T10:47:41.592Z,40.10
2017-05-25T10:50:09.908Z,40.40
2017-05-25T10:52:38.216Z,40.70
2017-05-25T10:55:06.532Z,40.90
2017-05-25T10:57:34.864Z,41.30
2017-05-25T11:00:03.176Z,40.70
2017-05-25T11:02:31.484Z,41.20
2017-05-25T11:04:59.805Z,40.80
2017-05-25T11:07:28.119Z,41.10
2017-05-25T11:09:56.431Z,40.90
2017-05-25T11:12:24.757Z,41.20
2017-05-25T11:14:53.069Z,40.60
2017-05-25T11:17:21.380Z,40.60
2017-05-25T11:19:49.714Z,40.40
2017-05-25T11:22:18.028Z,40.90
2017-05-25T11:24:46.346Z,40.60
2017-05-25T11:27:14.663Z,40.30
2017-05-25T11:29:42.968Z,40.70
2017-05-25T11:32:11.283Z,40.90
2017-05-25T11:34:39.604Z,40.10
2017-05-25T11:37:07.908Z,39.80
2017-05-25T11:39:36.215Z,39.30
2017-05-25T11:42:04.536Z,39.90
2017-05-25T11:44:32.840Z,39.80
2017-05-25T11:47:01.152Z,40.10
2017-05-25T11:49:29.490Z,39.40
2017-05-25T11:51:57.795Z,39.20
2017-05-25T11:54:26.101Z,39.30
2017-05-25T11:56:54.424Z,38.10
2017-05-25T11:59:22.738Z,37.40
2017-05-25T12:01:51.062Z,38.80
2017-05-25T12:04:19.380Z,40.10
2017-05-25T12:06:47.684Z,40.90
2017-05-25T12:09:15.995Z,41.60
2017-05-25T12:11:44.320Z,41.60
2017-05-25T12:14:12.630Z,42.70
2017-05-25T12:16:40.936Z,43.30
2017-05-25T12:19:09.258Z,43.70
2017-05-25T12:21:37.559Z,43.80
2017-05-25T12:24:05.870Z,43.20
2017-05-25T12:26:34.231Z,43.50
2017-05-25T12:29:02.539Z,42.80
2017-05-25T12:31:30.853Z,42.40
2017-05-25T12:33:59.172Z,42.10
2017-05-25T12:36:27.487Z,42.60
2017-05-25T12:38:55.864Z,43.10
2017-05-25T12:41:24.188Z,42.80
2017-05-25T12:43:52.491Z,42.70
2017-05-25T12:46:21.159Z,42.00
2017-05-25T12:48:49.576Z,42.50
2017-05-25T12:51:17.887Z,42.20
2017-05-25T12:53:46.607Z,42.30
2017-05-25T12:56:15.408Z,41.60
2017-05-25T12:58:43.888Z,42.20
2017-05-25T13:01:12.200Z,42.90
2017-05-25T13:03:40.523Z,41.40
2017-05-25T13:06:08.823Z,41.40
2017-05-25T13:08:37.129Z,41.20
2017-05-25T13:11:06.105Z,41.10
2017-05-25T13:13:34.416Z,40.60
2017-05-25T13:16:02.728Z,40.40
2017-05-25T13:18:31.045Z,39.50
2017-05-25T13:20:59.352Z,38.30
2017-05-25T13:23:27.810Z,37.70
2017-05-25T13:25:56.257Z,37.70
2017-05-25T13:28:24.564Z,37.00
2017-05-25T13:30:52.879Z,37.50
2017-05-25T13:33:21.199Z,37.20
2017-05-25T13:35:49.514Z,37.00
2017-05-25T13:38:17.980Z,37.90
2017-05-25T13:40:46.299Z,36.20
2017-05-25T13:43:14.614Z,35.80
2017-05-25T13:45:42.927Z,35.70
2017-05-25T13:48:11.244Z,36.50
2017-05-25T13:50:39.544Z,37.40
2017-05-25T13:53:07.863Z,37.20
2017-05-25T13:55:36.180Z,36.30
2017-05-25T13:58:04.496Z,37.00
2017-05-25T14:00:32.811Z,37.00
2017-05-25T14:03:01.140Z,37.30
2017-05-25T14:05:29.442Z,37.60
2017-05-25T14:07:57.754Z,38.30
2017-05-25T14:10:26.072Z,38.20
2017-05-25T14:12:54.380Z,38.50
2017-05-25T14:15:22.702Z,36.90
2017-05-25T14:17:51.020Z,37.30
2017-05-25T14:20:19.336Z,36.50
2017-05-25T14:22:47.648Z,36.50
2017-05-25T14:25:15.964Z,36.50
2017-05-25T14:27:44.325Z,36.10
2017-05-25T14:30:12.641Z,36.80
2017-05-25T14:32:40.964Z,36.10
2017-05-25T14:35:09.310Z,36.40
2017-05-25T14:37:37.608Z,36.30
2017-05-25T14:40:06.551Z,36.70
2017-05-25T14:42:34.864Z,36.70
2017-05-25T14:45:03.495Z,36.70
2017-05-25T14:47:32.424Z,37.20
2017-05-25T14:50:00.728Z,38.10
2017-05-25T14:52:29.041Z,38.80
2017-05-25T14:54:57.436Z,39.40
2017-05-25T14:57:25.743Z,39.00
2017-05-25T14:59:54.056Z,38.60
2017-05-25T15:02:22.380Z,39.90
2017-05-25T15:04:50.727Z,39.90
2017-05-25T15:07:19.049Z,39.80
2017-05-25T15:09:47.377Z,39.60
2017-05-25T15:12:15.688Z,39.50
2017-05-25T15:14:43.998Z,38.70
2017-05-25T15:17:12.325Z,38.90
2017-05-25T15:19:40.636Z,39.80
2017-05-25T15:22:08.966Z,40.00
2017-05-25T15:24:37.280Z,40.30
2017-05-25T15:27:05.602Z,39.60
2017-05-25T15:29:33.986Z,39.60
2017-05-25T15:32:02.334Z,38.50
2017-05-25T15:34:31.035Z,38.70
2017-05-25T15:36:59.351Z,38.10
2017-05-25T15:39:27.668Z,38.70
2017-05-25T15:41:55.976Z,38.00
2017-05-25T15:44:24.284Z,37.90
2017-05-25T15:46:52.612Z,37.80
2017-05-25T15:49:20.920Z,37.80
2017-05-25T15:51:49.223Z,38.30
2017-05-25T15:54:17.559Z,39.00
2017-05-25T15:56:45.970Z,38.80
2017-05-25T15:59:14.302Z,38.70
2017-05-25T16:01:42.861Z,38.60
2017-05-25T16:04:11.320Z,38.70
2017-05-25T16:06:39.788Z,38.10
2017-05-25T16:09:08.923Z,37.90
2017-05-25T16:11:37.231Z,37.20
2017-05-25T16:14:05.548Z,37.40
2017-05-25T16:16:33.874Z,37.30
2017-05-25T16:19:02.871Z,37.80
2017-05-25T16:21:31.239Z,38.00
2017-05-25T16:23:59.595Z,38.30
2017-05-25T16:26:27.909Z,37.70
2017-05-25T16:28:56.332Z,38.10
2017-05-25T16:31:24.652Z,38.00
2017-05-25T16:33:52.963Z,37.40
2017-05-25T16:36:21.280Z,37.30
2017-05-25T16:38:49.744Z,38.70
2017-05-25T16:41:20.573Z,38.00
2017-05-25T16:43:49.087Z,39.00
2017-05-25T16:46:17.407Z,39.40
2017-05-25T16:48:45.711Z,39.10
2017-05-25T16:51:14.031Z,38.80
2017-05-25T16:53:42.336Z,39.10
2017-05-25T16:56:10.659Z,39.60
2017-05-25T16:58:44.142Z,39.90
2017-05-25T17:01:12.462Z,41.30
2017-05-25T17:03:40.771Z,40.60
2017-05-25T17:06:09.123Z,41.30
2017-05-25T17:08:37.438Z,40.90
2017-05-25T17:11:05.768Z,41.50
2017-05-25T17:13:34.081Z,41.50
2017-05-25T17:16:02.495Z,41.50
2017-05-25T17:18:30.813Z,41.70
2017-05-25T17:20:59.132Z,42.00
2017-05-25T17:23:27.443Z,42.00
2017-05-25T17:25:55.768Z,41.80
2017-05-25T17:28:24.084Z,41.60
2017-05-25T17:30:52.401Z,41.80
2017-05-25T17:33:20.729Z,41.80
2017-05-25T17:35:49.064Z,41.40
2017-05-25T17:38:17.388Z,41.70
2017-05-25T17:40:45.715Z,42.10
2017-05-25T17:43:14.032Z,42.10
2017-05-25T17:45:42.352Z,42.30
2017-05-25T17:48:10.673Z,42.50
2017-05-25T17:50:38.980Z,42.20
2017-05-25T17:53:07.295Z,42.00
2017-05-25T17:55:35.621Z,41.90
2017-05-25T17:58:03.924Z,42.00
2017-05-25T18:00:32.261Z,43.00
2017-05-25T18:03:00.611Z,42.70
2017-05-25T18:05:28.915Z,42.90
2017-05-25T18:07:57.220Z,42.90
2017-05-25T18:10:25.535Z,43.60
2017-05-25T18:12:53.851Z,43.90
2017-05-25T18:15:22.155Z,44.10
2017-05-25T18:17:50.468Z,44.10
2017-05-25T18:20:18.781Z,44.10
2017-05-25T18:22:47.092Z,44.10
2017-05-25T18:25:15.417Z,44.40
2017-05-25T18:27:43.723Z,44.60
2017-05-25T18:30:12.027Z,44.40
2017-05-25T18:32:40.352Z,44.20
2017-05-25T18:35:08.655Z,44.40
2017-05-25T18:37:36.988Z,44.60
2017-05-25T18:40:05.313Z,45.10
2017-05-25T18:42:33.631Z,45.50
2017-05-25T18:45:01.940Z,45.20
2017-05-25T18:47:30.272Z,44.80
2017-05-25T18:49:58.588Z,44.70
2017-05-25T18:52:26.997Z,44.50
2017-05-25T18:54:55.552Z,44.30
2017-05-25T18:57:23.869Z,44.10
2017-05-25T18:59:52.176Z,44.00
2017-05-25T19:02:20.492Z,43.70
2017-05-25T19:04:48.803Z,43.80
2017-05-25T19:07:17.108Z,43.80
2017-05-25T19:09:45.436Z,44.10
2017-05-25T19:12:13.770Z,43.70
2017-05-25T19:14:42.087Z,43.40
2017-05-25T19:17:10.407Z,43.70
2017-05-25T19:19:38.716Z,44.10
2017-05-25T19:22:07.029Z,43.80
2017-05-25T19:24:35.372Z,43.70
2017-05-25T19:27:03.688Z,43.80
2017-05-25T19:29:32.004Z,43.80
2017-05-25T19:32:00.319Z,43.60
2017-05-25T19:34:28.639Z,43.70
2017-05-25T19:36:56.946Z,43.80
2017-05-25T19:39:25.265Z,44.10
2017-05-25T19:41:53.571Z,43.80
2017-05-25T19:44:21.891Z,43.70
2017-05-25T19:46:50.215Z,43.60
2017-05-25T19:49:18.525Z,43.80
2017-05-25T19:51:46.831Z,43.90
2017-05-25T19:54:15.152Z,44.40
2017-05-25T19:56:43.467Z,44.30
2017-05-25T19:59:11.779Z,44.50
2017-05-25T20:01:40.100Z,44.80
2017-05-25T20:04:08.415Z,44.80
2017-05-25T20:06:36.743Z,44.90
2017-05-25T20:09:05.072Z,45.00
2017-05-25T20:11:33.406Z,44.70
2017-05-25T20:14:01.720Z,45.00
2017-05-25T20:16:30.040Z,44.90
2017-05-25T20:18:58.349Z,45.00
2017-05-25T20:21:26.661Z,45.00
2017-05-25T20:23:54.979Z,45.40
2017-05-25T20:26:23.285Z,45.10
2017-05-25T20:28:51.600Z,45.20
2017-05-25T20:31:19.925Z,45.70
2017-05-25T20:33:48.238Z,45.60
2017-05-25T20:36:16.556Z,45.60
2017-05-25T20:38:44.885Z,46.00
2017-05-25T20:41:13.207Z,45.90
2017-05-25T20:43:41.513Z,45.90
2017-05-25T20:46:09.838Z,46.00
2017-05-25T20:48:38.143Z,46.10
2017-05-25T20:51:06.478Z,46.20
2017-05-25T20:53:34.825Z,46.10
2017-05-25T20:56:03.144Z,46.70
2017-05-25T20:58:31.455Z,46.30
2017-05-25T21:00:59.772Z,47.00
2017-05-25T21:03:28.089Z,47.00
2017-05-25T21:05:56.451Z,46.70
2017-05-25T21:08:24.778Z,46.90
2017-05-25T21:10:53.087Z,46.60
2017-05-25T21:13:21.396Z,46.70
2017-05-25T21:15:49.715Z,47.10
2017-05-25T21:18:18.027Z,46.80
2017-05-25T21:20:46.343Z,46.90
2017-05-25T21:23:14.669Z,47.00
2017-05-25T21:25:42.985Z,47.10
2017-05-25T21:28:11.295Z,47.40
2017-05-25T21:30:39.608Z,47.50
2017-05-25T21:33:07.923Z,48.70
2017-05-25T21:35:36.241Z,48.30
2017-05-25T21:38:04.563Z,48.00
2017-05-25T21:40:32.886Z,48.10
2017-05-25T21:43:01.204Z,48.30
2017-05-25T21:45:29.532Z,48.80
2017-05-25T21:47:57.840Z,48.70
2017-05-25T21:50:26.161Z,48.70
2017-05-25T21:52:54.475Z,48.40
2017-05-25T21:55:22.800Z,48.70
2017-05-25T21:57:51.119Z,49.00
2017-05-25T22:00:19.435Z,49.00
2017-05-25T22:02:47.746Z,49.00
2017-05-25T22:05:16.054Z,49.40
2017-05-25T22:07:44.455Z,49.50
2017-05-25T22:10:12.766Z,49.60
2017-05-25T22:12:41.092Z,49.50
2017-05-25T22:15:09.420Z,49.30
2017-05-25T22:17:37.736Z,49.30
2017-05-25T22:20:06.047Z,50.10
2017-05-25T22:22:34.372Z,50.00
2017-05-25T22:25:02.687Z,50.20
2017-05-25T22:27:31.003Z,50.10
2017-05-25T22:29:59.324Z,49.90
2017-05-25T22:32:27.639Z,50.00
2017-05-25T22:34:55.952Z,49.60
2017-05-25T22:37:24.267Z,49.60
2017-05-25T22:39:52.588Z,49.80
2017-05-25T22:42:20.921Z,49.70
2017-05-25T22:44:49.239Z,49.70
2017-05-25T22:47:17.554Z,49.40
2017-05-25T22:49:45.868Z,49.60
2017-05-25T22:52:14.201Z,49.10
2017-05-25T22:54:42.521Z,49.60
2017-05-25T22:57:10.827Z,49.30
2017-05-25T22:59:39.143Z,49.40
2017-05-25T23:02:07.461Z,49.20
2017-05-25T23:04:35.775Z,49.20
2017-05-25T23:07:04.197Z,49.40
2017-05-25T23:09:32.510Z,49.50
2017-05-25T23:12:00.819Z,49.60
2017-05-25T23:14:29.144Z,50.20
2017-05-25T23:16:57.448Z,50.30
2017-05-25T23:19:25.764Z,51.00
2017-05-25T23:21:54.148Z,51.70
2017-05-25T23:24:22.460Z,51.80
2017-05-25T23:26:50.779Z,51.70
2017-05-25T23:29:19.099Z,51.20
2017-05-25T23:31:47.420Z,51.10
2017-05-25T23:34:15.727Z,50.90
2017-05-25T23:36:44.045Z,50.70
2017-05-25T23:39:12.369Z,50.80
2017-05-25T23:41:40.705Z,51.30
2017-05-25T23:44:09.024Z,51.60
2017-05-25T23:46:37.348Z,51.70
2017-05-25T23:49:05.665Z,51.70
2017-05-25T23:51:33.997Z,51.40
2017-05-25T23:54:02.324Z,51.50
2017-05-25T23:56:30.649Z,51.60
2017-05-25T23:58:58.992Z,51.30
